Boston, Massachusetts
Traffic Map
Current Weather Conditions
Boston, Massachusetts
Few Clouds
Few Clouds
53°
Feels Like: 53°
Wind Chill: 53° Ceiling: Unl
Heat Index: 53° Visibility: 10mi
Dew Point: 33° Wind: 8mph
Humidity: 47% Direction: 260° (W)
Pressure: 30.01in Gusts: 0mph
Raw Report DataKBOS 162354Z 26007KT 10SM FEW230 12/01 A3001 RMK AO2 SLP160 T01170006 10150 20117 51011
Traffic Incident Summary
Active as of:
Severity:
Category:
InformationThere was an issue retrieving the traffic information for this location. Please try a different location or try again shortly.
Advertisements